Time;durP1;ratioP1;P1;durP2;ratioP2;P2;SDS_P1;SDS_P2;PMS_P1;PMS_P2;Temp;Humidity;BMP_temperature;BMP_pressure;BME280_temperature;BME280_humidity;BME280_pressure;Samples;Min_cycle;Max_cycle;Signal;HPM_P1;HPM_P2
2023/03/19 00:43:45;;;;;;;26.53;16.00;;;5.00;80.90;;;;;;5783086;24;20183;-83
2023/03/19 01:14:23;;;;;;;25.93;16.17;;;4.40;82.10;;;;;;5857592;24;20230;-83
2023/03/19 01:18:44;;;;;;;23.70;16.33;;;4.40;82.10;;;;;;5687539;24;20414;-84
2023/03/19 01:44:33;;;;;;;24.07;15.17;;;4.10;83.30;;;;;;5769783;24;20359;-83
2023/03/19 02:09:50;;;;;;;27.30;16.77;;;3.30;85.00;;;;;;5550375;25;20185;-81
2023/03/19 02:35:16;;;;;;;22.90;16.10;;;2.80;87.90;;;;;;5553977;24;20498;-83
2023/03/19 03:56:08;;;;;;;24.67;16.57;;;3.40;87.70;;;;;;5803586;24;20514;-83
2023/03/19 04:21:46;;;;;;;25.07;17.27;;;3.20;88.10;;;;;;5684113;24;20219;-82
2023/03/19 04:47:24;;;;;;;30.23;18.17;;;3.10;88.10;;;;;;5695193;24;21017;-83
2023/03/19 05:07:43;;;;;;;28.37;16.87;;;3.10;88.90;;;;;;5866079;23;20184;-82
2023/03/19 05:27:59;;;;;;;23.83;16.63;;;3.00;89.90;;;;;;5910118;23;20199;-82
2023/03/19 05:58:10;;;;;;;24.90;16.80;;;4.10;86.10;;;;;;5996114;23;20173;-84
2023/03/19 07:54:59;;;;;;;22.40;14.90;;;8.90;76.10;;;;;;5762242;24;20329;-84
2023/03/19 08:15:22;;;;;;;19.20;13.53;;;10.20;70.30;;;;;;5779466;24;20296;-82
2023/03/19 08:40:24;;;;;;;18.37;13.33;;;11.10;67.80;;;;;;5787372;24;20594;-83
2023/03/19 09:36:35;;;;;;;13.40;9.80;;;12.80;63.10;;;;;;5548514;25;20186;-83
2023/03/19 10:52:02;;;;;;;13.07;8.33;;;14.50;55.40;;;;;;5842442;23;20487;-82
2023/03/19 11:17:25;;;;;;;11.23;8.10;;;15.10;50.20;;;;;;5824725;23;20689;-85
2023/03/19 11:38:23;;;;;;;12.03;8.93;;;14.90;50.00;;;;;;5649544;24;20166;-84
2023/03/19 11:42:44;;;;;;;10.90;8.23;;;14.80;49.90;;;;;;5602039;24;20723;-82
2023/03/19 12:08:39;;;;;;;10.77;8.20;;;15.00;48.70;;;;;;5873892;23;20205;-84
2023/03/19 13:49:35;;;;;;;9.50;7.87;;;16.00;44.80;;;;;;5907110;23;21040;-83
2023/03/19 14:10:32;;;;;;;11.30;7.97;;;15.90;45.30;;;;;;5979248;23;20209;-82
2023/03/19 14:46:02;;;;;;;8.27;7.27;;;15.80;44.10;;;;;;6035430;23;20533;-83
2023/03/19 15:21:31;;;;;;;10.03;7.10;;;15.20;45.20;;;;;;5803921;24;20166;-81
2023/03/19 15:51:52;;;;;;;11.00;8.20;;;13.70;47.00;;;;;;5832920;23;20178;-82
2023/03/19 16:21:44;;;;;;;9.87;7.67;;;12.30;49.70;;;;;;5681385;24;20432;-85
2023/03/19 16:47:47;;;;;;;12.70;8.10;;;11.10;57.30;;;;;;5761689;24;20569;-82
2023/03/19 17:18:14;;;;;;;17.07;9.20;;;9.30;76.60;;;;;;5728728;24;20790;-83
2023/03/19 17:48:37;;;;;;;17.23;8.83;;;8.50;80.10;;;;;;5589316;25;20588;-83
2023/03/19 18:23:28;;;;;;;16.47;11.57;;;8.00;81.30;;;;;;5642580;24;20186;-85
2023/03/19 18:54:31;;;;;;;50.23;31.00;;;7.80;82.80;;;;;;5924314;23;21107;-82
2023/03/19 19:39:33;;;;;;;50.07;33.67;;;7.30;82.80;;;;;;6064098;23;20248;-84
2023/03/19 20:00:24;;;;;;;51.90;31.83;;;7.00;84.50;;;;;;5879152;23;20180;-84
2023/03/19 20:25:32;;;;;;;47.70;30.90;;;6.50;86.10;;;;;;5731153;24;20475;-84
2023/03/19 20:46:07;;;;;;;46.30;29.53;;;6.10;87.60;;;;;;5644343;24;20721;-84
2023/03/19 21:11:33;;;;;;;46.33;28.23;;;5.10;89.20;;;;;;5609534;24;20203;-83
2023/03/19 21:41:51;;;;;;;48.57;29.73;;;4.60;93.30;;;;;;5893243;23;20285;-82
2023/03/19 22:12:27;;;;;;;51.37;30.40;;;4.60;94.70;;;;;;5865559;24;20230;-85
2023/03/19 22:16:48;;;;;;;48.50;32.60;;;4.50;94.90;;;;;;5677219;24;20486;-85
2023/03/19 22:37:40;;;;;;;53.63;34.80;;;4.80;93.60;;;;;;5603461;24;20510;-84
2023/03/19 23:08:22;;;;;;;60.60;35.77;;;4.90;93.20;;;;;;6023755;23;20205;-84
2023/03/19 23:12:40;;;;;;;56.70;37.27;;;4.80;92.50;;;;;;5866619;23;20198;-85
2023/03/19 23:33:36;;;;;;;55.27;34.87;;;4.20;92.80;;;;;;5914806;23;20225;-83
2023/03/19 23:58:52;;;;;;;58.53;38.03;;;3.90;95.90;;;;;;5685444;24;20212;-84
